sensor_id;sensor_type;location;lat;lon;timestamp;pressure;altitude;pressure_sealevel;temperature;humidity
7940;BME280;4015;48.888;9.226;2023-05-20T00:01:30;158328.03;;;12.28;84.54
7940;BME280;4015;48.888;9.226;2023-05-20T00:03:55;158330.56;;;12.29;84.69
7940;BME280;4015;48.888;9.226;2023-05-20T00:06:21;158333.13;;;12.30;84.71
7940;BME280;4015;48.888;9.226;2023-05-20T00:08:47;158336.94;;;12.31;84.78
7940;BME280;4015;48.888;9.226;2023-05-20T00:11:12;158333.13;;;12.30;85.16
7940;BME280;4015;48.888;9.226;2023-05-20T00:13:37;158335.69;;;12.31;85.60
7940;BME280;4015;48.888;9.226;2023-05-20T00:16:03;158334.41;;;12.30;85.40
7940;BME280;4015;48.888;9.226;2023-05-20T00:18:29;158345.94;;;12.35;85.38
7940;BME280;4015;48.888;9.226;2023-05-20T00:20:54;158348.47;;;12.36;85.69
7940;BME280;4015;48.888;9.226;2023-05-20T00:23:20;158362.56;;;12.41;85.02
7940;BME280;4015;48.888;9.226;2023-05-20T00:25:45;158352.31;;;12.37;85.39
7940;BME280;4015;48.888;9.226;2023-05-20T00:28:10;158351.03;;;12.37;85.74
7940;BME280;4015;48.888;9.226;2023-05-20T00:30:38;158363.81;;;12.42;85.37
7940;BME280;4015;48.888;9.226;2023-05-20T00:33:05;158356.19;;;12.39;86.02
7940;BME280;4015;48.888;9.226;2023-05-20T00:35:30;158362.56;;;12.41;85.70
7940;BME280;4015;48.888;9.226;2023-05-20T00:37:55;158381.72;;;12.49;85.98
7940;BME280;4015;48.888;9.226;2023-05-20T00:40:21;158393.25;;;12.54;85.95
7940;BME280;4015;48.888;9.226;2023-05-20T00:42:47;158402.22;;;12.57;85.90
7940;BME280;4015;48.888;9.226;2023-05-20T00:45:12;158409.88;;;12.60;85.44
7940;BME280;4015;48.888;9.226;2023-05-20T00:47:38;158436.75;;;12.71;84.63
7940;BME280;4015;48.888;9.226;2023-05-20T00:50:04;158443.13;;;12.74;85.21
7940;BME280;4015;48.888;9.226;2023-05-20T00:52:31;158453.38;;;12.78;84.86
7940;BME280;4015;48.888;9.226;2023-05-20T00:54:57;158452.09;;;12.77;84.68
7940;BME280;4015;48.888;9.226;2023-05-20T00:57:23;158463.56;;;12.82;85.06
7940;BME280;4015;48.888;9.226;2023-05-20T00:59:48;158461.03;;;12.81;85.26
7940;BME280;4015;48.888;9.226;2023-05-20T01:02:14;158475.09;;;12.86;84.98
7940;BME280;4015;48.888;9.226;2023-05-20T01:04:40;158490.44;;;12.92;85.01
7940;BME280;4015;48.888;9.226;2023-05-20T01:07:11;158500.69;;;12.96;84.89
7940;BME280;4015;48.888;9.226;2023-05-20T01:09:37;158513.50;;;13.02;84.54
7940;BME280;4015;48.888;9.226;2023-05-20T01:12:14;158489.16;;;12.92;84.04
7940;BME280;4015;48.888;9.226;2023-05-20T01:14:55;158510.91;;;13.01;84.22
7940;BME280;4015;48.888;9.226;2023-05-20T01:17:26;158516.06;;;13.03;84.35
7940;BME280;4015;48.888;9.226;2023-05-20T01:19:53;158510.91;;;13.01;83.13
7940;BME280;4015;48.888;9.226;2023-05-20T01:22:26;158523.72;;;13.06;83.72
7940;BME280;4015;48.888;9.226;2023-05-20T01:24:52;158530.13;;;13.08;83.20
7940;BME280;4015;48.888;9.226;2023-05-20T01:27:18;158542.88;;;13.13;82.58
7940;BME280;4015;48.888;9.226;2023-05-20T01:29:45;158556.97;;;13.19;83.35
7940;BME280;4015;48.888;9.226;2023-05-20T01:32:30;158542.88;;;13.13;83.59
7940;BME280;4015;48.888;9.226;2023-05-20T01:34:57;158541.63;;;13.13;83.54
7940;BME280;4015;48.888;9.226;2023-05-20T01:37:24;158540.34;;;13.12;83.48
7940;BME280;4015;48.888;9.226;2023-05-20T01:39:51;158545.50;;;13.14;84.24
7940;BME280;4015;48.888;9.226;2023-05-20T01:42:18;158542.88;;;13.13;84.86
7940;BME280;4015;48.888;9.226;2023-05-20T01:44:44;158541.63;;;13.13;84.41
7940;BME280;4015;48.888;9.226;2023-05-20T01:47:10;158530.13;;;13.08;84.48
7940;BME280;4015;48.888;9.226;2023-05-20T01:49:35;158540.34;;;13.12;84.15
7940;BME280;4015;48.888;9.226;2023-05-20T01:52:01;158539.06;;;13.12;83.81
7940;BME280;4015;48.888;9.226;2023-05-20T01:54:26;158541.63;;;13.13;83.68
7940;BME280;4015;48.888;9.226;2023-05-20T01:56:52;158531.41;;;13.09;83.05
7940;BME280;4015;48.888;9.226;2023-05-20T01:59:17;158541.63;;;13.13;83.30
7940;BME280;4015;48.888;9.226;2023-05-20T02:01:42;158535.25;;;13.10;83.73
7940;BME280;4015;48.888;9.226;2023-05-20T02:04:08;158522.44;;;13.05;84.12
7940;BME280;4015;48.888;9.226;2023-05-20T02:06:33;158523.72;;;13.06;83.79
7940;BME280;4015;48.888;9.226;2023-05-20T02:08:59;158505.81;;;12.99;84.27
7940;BME280;4015;48.888;9.226;2023-05-20T02:11:24;158521.16;;;13.05;83.15
7940;BME280;4015;48.888;9.226;2023-05-20T02:13:50;158496.88;;;12.95;84.21
7940;BME280;4015;48.888;9.226;2023-05-20T02:16:15;158493.00;;;12.93;84.12
7940;BME280;4015;48.888;9.226;2023-05-20T02:18:41;158468.72;;;12.84;84.61
7940;BME280;4015;48.888;9.226;2023-05-20T02:21:07;158481.53;;;12.89;83.83
7940;BME280;4015;48.888;9.226;2023-05-20T02:23:33;158455.91;;;12.79;84.38
7940;BME280;4015;48.888;9.226;2023-05-20T02:25:58;158431.59;;;12.69;84.79
7940;BME280;4015;48.888;9.226;2023-05-20T02:28:24;158432.88;;;12.69;84.78
7940;BME280;4015;48.888;9.226;2023-05-20T02:30:49;158457.19;;;12.79;84.09
7940;BME280;4015;48.888;9.226;2023-05-20T02:33:18;158452.09;;;12.77;84.66
7940;BME280;4015;48.888;9.226;2023-05-20T02:35:43;158439.28;;;12.72;84.84
7940;BME280;4015;48.888;9.226;2023-05-20T02:38:12;158436.75;;;12.71;85.00
7940;BME280;4015;48.888;9.226;2023-05-20T02:40:38;158430.31;;;12.68;85.41
7940;BME280;4015;48.888;9.226;2023-05-20T02:43:03;158431.59;;;12.69;85.85
7940;BME280;4015;48.888;9.226;2023-05-20T02:45:28;158443.13;;;12.74;85.61
7940;BME280;4015;48.888;9.226;2023-05-20T02:47:54;158468.72;;;12.84;84.49
7940;BME280;4015;48.888;9.226;2023-05-20T02:50:19;158445.66;;;12.75;85.04
7940;BME280;4015;48.888;9.226;2023-05-20T02:52:44;158455.91;;;12.79;84.86
7940;BME280;4015;48.888;9.226;2023-05-20T02:55:10;158439.28;;;12.72;85.80
7940;BME280;4015;48.888;9.226;2023-05-20T02:57:36;158468.72;;;12.84;85.29
7940;BME280;4015;48.888;9.226;2023-05-20T03:00:05;158458.47;;;12.80;84.72
7940;BME280;4015;48.888;9.226;2023-05-20T03:02:32;158429.03;;;12.68;85.92
7940;BME280;4015;48.888;9.226;2023-05-20T03:04:58;158413.69;;;12.62;86.13
7940;BME280;4015;48.888;9.226;2023-05-20T03:07:23;158398.34;;;12.56;86.22
7940;BME280;4015;48.888;9.226;2023-05-20T03:09:49;158411.16;;;12.61;86.34
7940;BME280;4015;48.888;9.226;2023-05-20T03:12:14;158399.63;;;12.56;86.56
7940;BME280;4015;48.888;9.226;2023-05-20T03:14:40;158391.97;;;12.53;86.58
7940;BME280;4015;48.888;9.226;2023-05-20T03:17:05;158368.91;;;12.44;87.00
7940;BME280;4015;48.888;9.226;2023-05-20T03:19:30;158394.53;;;12.54;86.62
7940;BME280;4015;48.888;9.226;2023-05-20T03:21:56;158389.41;;;12.52;86.75
7940;BME280;4015;48.888;9.226;2023-05-20T03:24:22;158385.53;;;12.51;86.96
7940;BME280;4015;48.888;9.226;2023-05-20T03:26:48;158386.88;;;12.51;86.32
7940;BME280;4015;48.888;9.226;2023-05-20T03:29:13;158371.53;;;12.45;86.84
7940;BME280;4015;48.888;9.226;2023-05-20T03:31:39;158379.16;;;12.48;86.85
7940;BME280;4015;48.888;9.226;2023-05-20T03:34:04;158367.66;;;12.43;86.86
7940;BME280;4015;48.888;9.226;2023-05-20T03:36:29;158354.91;;;12.38;87.10
7940;BME280;4015;48.888;9.226;2023-05-20T03:38:55;158354.91;;;12.38;87.00
7940;BME280;4015;48.888;9.226;2023-05-20T03:41:20;158357.44;;;12.39;87.22
7940;BME280;4015;48.888;9.226;2023-05-20T03:43:46;158340.81;;;12.33;87.86
7940;BME280;4015;48.888;9.226;2023-05-20T03:46:11;158331.84;;;12.29;88.39
7940;BME280;4015;48.888;9.226;2023-05-20T03:48:37;158320.34;;;12.25;88.06
7940;BME280;4015;48.888;9.226;2023-05-20T03:51:02;158302.44;;;12.18;88.41
7940;BME280;4015;48.888;9.226;2023-05-20T03:53:28;158324.22;;;12.26;87.77
7940;BME280;4015;48.888;9.226;2023-05-20T03:55:53;158310.13;;;12.21;88.65
7940;BME280;4015;48.888;9.226;2023-05-20T03:58:18;158283.28;;;12.10;88.87
7940;BME280;4015;48.888;9.226;2023-05-20T04:00:44;158287.09;;;12.11;88.77
7940;BME280;4015;48.888;9.226;2023-05-20T04:03:11;158303.72;;;12.18;88.32
7940;BME280;4015;48.888;9.226;2023-05-20T04:05:37;158304.97;;;12.19;88.66
7940;BME280;4015;48.888;9.226;2023-05-20T04:08:02;158311.41;;;12.21;88.80
7940;BME280;4015;48.888;9.226;2023-05-20T04:10:29;158325.47;;;12.27;88.74
7940;BME280;4015;48.888;9.226;2023-05-20T04:12:58;158345.94;;;12.35;88.97
7940;BME280;4015;48.888;9.226;2023-05-20T04:15:23;158357.44;;;12.39;88.97
7940;BME280;4015;48.888;9.226;2023-05-20T04:17:49;158360.00;;;12.40;88.64
7940;BME280;4015;48.888;9.226;2023-05-20T04:20:17;158374.06;;;12.46;88.27
7940;BME280;4015;48.888;9.226;2023-05-20T04:22:43;158366.38;;;12.43;88.51
7940;BME280;4015;48.888;9.226;2023-05-20T04:25:08;158361.28;;;12.41;88.50
7940;BME280;4015;48.888;9.226;2023-05-20T04:27:34;158381.72;;;12.49;88.12
7940;BME280;4015;48.888;9.226;2023-05-20T04:29:59;158399.63;;;12.56;87.74
7940;BME280;4015;48.888;9.226;2023-05-20T04:32:26;158411.16;;;12.61;87.72
7940;BME280;4015;48.888;9.226;2023-05-20T04:34:51;158412.41;;;12.61;88.09
7940;BME280;4015;48.888;9.226;2023-05-20T04:37:18;158430.31;;;12.68;88.45
7940;BME280;4015;48.888;9.226;2023-05-20T04:39:44;158427.78;;;12.67;88.28
7940;BME280;4015;48.888;9.226;2023-05-20T04:42:12;158417.56;;;12.63;88.51
7940;BME280;4015;48.888;9.226;2023-05-20T04:44:37;158404.78;;;12.58;89.10
7940;BME280;4015;48.888;9.226;2023-05-20T04:47:04;158431.59;;;12.69;88.50
7940;BME280;4015;48.888;9.226;2023-05-20T04:49:32;158427.78;;;12.67;88.21
7940;BME280;4015;48.888;9.226;2023-05-20T04:51:57;158443.13;;;12.74;88.02
7940;BME280;4015;48.888;9.226;2023-05-20T04:54:23;158448.22;;;12.76;87.83
7940;BME280;4015;48.888;9.226;2023-05-20T04:56:49;158448.22;;;12.76;87.81
7940;BME280;4015;48.888;9.226;2023-05-20T04:59:15;158445.66;;;12.75;87.93
7940;BME280;4015;48.888;9.226;2023-05-20T05:01:40;158476.38;;;12.87;87.06
7940;BME280;4015;48.888;9.226;2023-05-20T05:04:06;158487.91;;;12.91;87.18
7940;BME280;4015;48.888;9.226;2023-05-20T05:06:31;158496.88;;;12.95;87.02
7940;BME280;4015;48.888;9.226;2023-05-20T05:08:56;158526.25;;;13.07;87.35
7940;BME280;4015;48.888;9.226;2023-05-20T05:11:22;158522.44;;;13.05;87.43
7940;BME280;4015;48.888;9.226;2023-05-20T05:13:47;158539.06;;;13.12;87.41
7940;BME280;4015;48.888;9.226;2023-05-20T05:16:13;158559.56;;;13.20;86.55
7940;BME280;4015;48.888;9.226;2023-05-20T05:18:38;158610.78;;;13.40;86.63
7940;BME280;4015;48.888;9.226;2023-05-20T05:21:05;158658.13;;;13.59;84.54
7940;BME280;4015;48.888;9.226;2023-05-20T05:23:30;158693.97;;;13.73;83.70
7940;BME280;4015;48.888;9.226;2023-05-20T05:25:56;158725.97;;;13.86;83.19
7940;BME280;4015;48.888;9.226;2023-05-20T05:28:22;158761.78;;;14.00;83.64
7940;BME280;4015;48.888;9.226;2023-05-20T05:30:47;158802.78;;;14.17;83.15
7940;BME280;4015;48.888;9.226;2023-05-20T05:33:13;158838.59;;;14.31;82.69
7940;BME280;4015;48.888;9.226;2023-05-20T05:35:40;158859.06;;;14.39;82.67
7940;BME280;4015;48.888;9.226;2023-05-20T05:38:06;158882.19;;;14.48;82.01
7940;BME280;4015;48.888;9.226;2023-05-20T05:40:31;158921.88;;;14.64;81.79
7940;BME280;4015;48.888;9.226;2023-05-20T05:42:56;158957.75;;;14.78;81.71
7940;BME280;4015;48.888;9.226;2023-05-20T05:45:22;158992.34;;;14.92;81.19
7940;BME280;4015;48.888;9.226;2023-05-20T05:47:47;159015.38;;;15.01;80.44
7940;BME280;4015;48.888;9.226;2023-05-20T05:50:12;159035.91;;;15.09;79.90
7940;BME280;4015;48.888;9.226;2023-05-20T05:52:38;159103.78;;;15.36;79.19
7940;BME280;4015;48.888;9.226;2023-05-20T05:55:03;159107.59;;;15.38;78.75
7940;BME280;4015;48.888;9.226;2023-05-20T05:57:29;159144.81;;;15.53;78.98
7940;BME280;4015;48.888;9.226;2023-05-20T05:59:55;159147.34;;;15.54;78.53
7940;BME280;4015;48.888;9.226;2023-05-20T06:02:21;159151.19;;;15.55;78.92
7940;BME280;4015;48.888;9.226;2023-05-20T06:04:46;159199.91;;;15.75;78.83
7940;BME280;4015;48.888;9.226;2023-05-20T06:07:11;159221.69;;;15.83;78.58
7940;BME280;4015;48.888;9.226;2023-05-20T06:09:37;159278.09;;;16.06;77.85
7940;BME280;4015;48.888;9.226;2023-05-20T06:12:03;159276.81;;;16.05;77.62
7940;BME280;4015;48.888;9.226;2023-05-20T06:14:28;159280.66;;;16.07;78.05
7940;BME280;4015;48.888;9.226;2023-05-20T06:16:53;159298.59;;;16.14;77.74
7940;BME280;4015;48.888;9.226;2023-05-20T06:19:19;159330.63;;;16.27;77.47
7940;BME280;4015;48.888;9.226;2023-05-20T06:21:44;159353.72;;;16.36;77.29
7940;BME280;4015;48.888;9.226;2023-05-20T06:24:10;159367.84;;;16.41;76.66
7940;BME280;4015;48.888;9.226;2023-05-20T06:26:35;159397.34;;;16.53;76.45
7940;BME280;4015;48.888;9.226;2023-05-20T06:29:01;159426.78;;;16.65;75.65
7940;BME280;4015;48.888;9.226;2023-05-20T06:31:27;159519.16;;;17.02;75.09
7940;BME280;4015;48.888;9.226;2023-05-20T06:33:54;159534.53;;;17.08;75.49
7940;BME280;4015;48.888;9.226;2023-05-20T06:36:19;159523.00;;;17.03;74.40
7940;BME280;4015;48.888;9.226;2023-05-20T06:38:45;159553.78;;;17.15;74.41
7940;BME280;4015;48.888;9.226;2023-05-20T06:41:10;159476.88;;;16.85;73.89
7940;BME280;4015;48.888;9.226;2023-05-20T06:43:36;159532.00;;;17.07;74.70
7940;BME280;4015;48.888;9.226;2023-05-20T06:46:01;159578.16;;;17.25;75.39
7940;BME280;4015;48.888;9.226;2023-05-20T06:48:26;159715.50;;;17.79;72.88
7940;BME280;4015;48.888;9.226;2023-05-20T06:50:52;159680.75;;;17.66;71.83
7940;BME280;4015;48.888;9.226;2023-05-20T06:53:17;159719.31;;;17.81;73.42
7940;BME280;4015;48.888;9.226;2023-05-20T06:55:42;159850.19;;;18.33;70.29
7940;BME280;4015;48.888;9.226;2023-05-20T06:58:08;159800.16;;;18.13;72.02
7940;BME280;4015;48.888;9.226;2023-05-20T07:00:33;159795.03;;;18.11;72.13
7940;BME280;4015;48.888;9.226;2023-05-20T07:02:58;159886.13;;;18.47;71.34
7940;BME280;4015;48.888;9.226;2023-05-20T07:05:24;159929.78;;;18.65;69.88
7940;BME280;4015;48.888;9.226;2023-05-20T07:07:49;159911.81;;;18.57;70.33
7940;BME280;4015;48.888;9.226;2023-05-20T07:10:15;159909.25;;;18.56;70.12
7940;BME280;4015;48.888;9.226;2023-05-20T07:12:40;159955.50;;;18.75;69.03
7940;BME280;4015;48.888;9.226;2023-05-20T07:15:06;159869.44;;;18.41;68.60
7940;BME280;4015;48.888;9.226;2023-05-20T07:17:32;159884.84;;;18.47;68.81
7940;BME280;4015;48.888;9.226;2023-05-20T07:19:57;159874.59;;;18.43;69.86
7940;BME280;4015;48.888;9.226;2023-05-20T07:22:23;159982.44;;;18.85;69.60
7940;BME280;4015;48.888;9.226;2023-05-20T07:24:48;160168.66;;;19.59;67.28
7940;BME280;4015;48.888;9.226;2023-05-20T07:27:13;160238.06;;;19.87;66.97
7940;BME280;4015;48.888;9.226;2023-05-20T07:29:39;160259.88;;;19.96;65.78
7940;BME280;4015;48.888;9.226;2023-05-20T07:32:04;160185.38;;;19.66;65.16
7940;BME280;4015;48.888;9.226;2023-05-20T07:34:30;160132.69;;;19.45;67.28
7940;BME280;4015;48.888;9.226;2023-05-20T07:36:56;160357.50;;;20.34;66.14
7940;BME280;4015;48.888;9.226;2023-05-20T07:39:21;160225.19;;;19.82;66.09
7940;BME280;4015;48.888;9.226;2023-05-20T07:41:48;160238.06;;;19.87;64.79
7940;BME280;4015;48.888;9.226;2023-05-20T07:44:13;160390.94;;;20.47;62.46
7940;BME280;4015;48.888;9.226;2023-05-20T07:46:38;160546.44;;;21.09;62.14
7940;BME280;4015;48.888;9.226;2023-05-20T07:49:05;160785.63;;;22.04;59.78
7940;BME280;4015;48.888;9.226;2023-05-20T07:51:31;160684.06;;;21.64;62.43
7940;BME280;4015;48.888;9.226;2023-05-20T07:53:56;160693.03;;;21.67;61.66
7940;BME280;4015;48.888;9.226;2023-05-20T07:56:22;160635.22;;;21.44;61.90
7940;BME280;4015;48.888;9.226;2023-05-20T07:58:52;160568.28;;;21.18;61.54
7940;BME280;4015;48.888;9.226;2023-05-20T08:01:18;160655.75;;;21.52;62.49
7940;BME280;4015;48.888;9.226;2023-05-20T08:03:43;160846.13;;;22.28;58.60
7940;BME280;4015;48.888;9.226;2023-05-20T08:06:08;160705.91;;;21.72;59.10
7940;BME280;4015;48.888;9.226;2023-05-20T08:08:34;160601.78;;;21.31;59.68
7940;BME280;4015;48.888;9.226;2023-05-20T08:11:00;160513.03;;;20.96;60.85
7940;BME280;4015;48.888;9.226;2023-05-20T08:13:26;160732.91;;;21.83;59.24
7940;BME280;4015;48.888;9.226;2023-05-20T08:15:54;160888.56;;;22.45;60.00
7940;BME280;4015;48.888;9.226;2023-05-20T08:18:20;160947.72;;;22.68;57.23
7940;BME280;4015;48.888;9.226;2023-05-20T08:20:46;161010.78;;;22.93;57.01
7940;BME280;4015;48.888;9.226;2023-05-20T08:23:11;161154.91;;;23.50;56.47
7940;BME280;4015;48.888;9.226;2023-05-20T08:25:37;161351.91;;;24.28;55.87
7940;BME280;4015;48.888;9.226;2023-05-20T08:28:03;161349.34;;;24.27;54.32
7940;BME280;4015;48.888;9.226;2023-05-20T08:30:31;161247.63;;;23.87;55.46
7940;BME280;4015;48.888;9.226;2023-05-20T08:32:56;161031.41;;;23.01;55.92
7940;BME280;4015;48.888;9.226;2023-05-20T08:35:25;160810.13;;;22.14;58.99
7940;BME280;4015;48.888;9.226;2023-05-20T08:37:50;160734.19;;;21.84;59.73
7940;BME280;4015;48.888;9.226;2023-05-20T08:40:18;160900.13;;;22.49;56.76
7940;BME280;4015;48.888;9.226;2023-05-20T08:42:44;161045.56;;;23.07;57.02
7940;BME280;4015;48.888;9.226;2023-05-20T08:45:10;160940.00;;;22.65;56.41
7940;BME280;4015;48.888;9.226;2023-05-20T08:47:40;160813.97;;;22.15;58.28
7940;BME280;4015;48.888;9.226;2023-05-20T08:50:08;160752.19;;;21.91;58.48
7940;BME280;4015;48.888;9.226;2023-05-20T08:52:36;161085.44;;;23.23;58.67
7940;BME280;4015;48.888;9.226;2023-05-20T08:55:03;161162.66;;;23.53;54.22
7940;BME280;4015;48.888;9.226;2023-05-20T08:57:32;161179.38;;;23.60;54.52
7940;BME280;4015;48.888;9.226;2023-05-20T08:59:58;161103.44;;;23.30;55.39
7940;BME280;4015;48.888;9.226;2023-05-20T09:02:24;161035.25;;;23.03;56.17
7940;BME280;4015;48.888;9.226;2023-05-20T09:04:49;160933.56;;;22.62;56.57
7940;BME280;4015;48.888;9.226;2023-05-20T09:07:25;160866.69;;;22.36;56.54
7940;BME280;4015;48.888;9.226;2023-05-20T09:09:51;160909.13;;;22.53;57.05
7940;BME280;4015;48.888;9.226;2023-05-20T09:12:16;160873.13;;;22.39;58.70
7940;BME280;4015;48.888;9.226;2023-05-20T09:14:42;160902.72;;;22.50;56.80
7940;BME280;4015;48.888;9.226;2023-05-20T09:17:07;160753.47;;;21.91;58.49
7940;BME280;4015;48.888;9.226;2023-05-20T09:19:32;160758.59;;;21.93;58.33
7940;BME280;4015;48.888;9.226;2023-05-20T09:21:57;160753.47;;;21.91;58.99
7940;BME280;4015;48.888;9.226;2023-05-20T09:24:24;161003.09;;;22.90;58.27
7940;BME280;4015;48.888;9.226;2023-05-20T09:26:51;161180.66;;;23.60;55.16
7940;BME280;4015;48.888;9.226;2023-05-20T09:29:16;161323.56;;;24.17;55.80
7940;BME280;4015;48.888;9.226;2023-05-20T09:31:43;161247.63;;;23.87;56.40
7940;BME280;4015;48.888;9.226;2023-05-20T09:34:09;161296.53;;;24.06;56.23
7940;BME280;4015;48.888;9.226;2023-05-20T09:36:34;161255.38;;;23.90;55.30
7940;BME280;4015;48.888;9.226;2023-05-20T09:39:02;161170.34;;;23.56;55.95
7940;BME280;4015;48.888;9.226;2023-05-20T09:41:32;161148.47;;;23.48;56.43
7940;BME280;4015;48.888;9.226;2023-05-20T09:43:59;161116.31;;;23.35;54.86
7940;BME280;4015;48.888;9.226;2023-05-20T09:46:25;161040.38;;;23.05;56.02
7940;BME280;4015;48.888;9.226;2023-05-20T09:48:52;160967.03;;;22.76;57.99
7940;BME280;4015;48.888;9.226;2023-05-20T09:51:18;160916.84;;;22.56;58.35
7940;BME280;4015;48.888;9.226;2023-05-20T09:53:43;160950.31;;;22.69;58.75
7940;BME280;4015;48.888;9.226;2023-05-20T09:56:09;161022.38;;;22.98;57.52
7940;BME280;4015;48.888;9.226;2023-05-20T09:58:35;161126.63;;;23.39;56.39
7940;BME280;4015;48.888;9.226;2023-05-20T10:01:01;161264.34;;;23.93;56.87
7940;BME280;4015;48.888;9.226;2023-05-20T10:03:26;161407.28;;;24.50;54.76
7940;BME280;4015;48.888;9.226;2023-05-20T10:08:39;161466.53;;;24.73;55.17
7940;BME280;4015;48.888;9.226;2023-05-20T10:11:21;161658.47;;;25.49;50.59
7940;BME280;4015;48.888;9.226;2023-05-20T10:19:13;161909.84;;;26.49;48.06
7940;BME280;4015;48.888;9.226;2023-05-20T10:21:43;161743.53;;;25.83;50.79
7940;BME280;4015;48.888;9.226;2023-05-20T10:24:09;161771.91;;;25.94;50.93
7940;BME280;4015;48.888;9.226;2023-05-20T10:26:40;161350.63;;;24.28;53.72
7940;BME280;4015;48.888;9.226;2023-05-20T10:29:18;161395.75;;;24.45;54.05
7940;BME280;4015;48.888;9.226;2023-05-20T10:31:47;161395.75;;;24.45;55.50
7940;BME280;4015;48.888;9.226;2023-05-20T10:34:14;161406.00;;;24.49;54.75
7940;BME280;4015;48.888;9.226;2023-05-20T10:37:04;161227.03;;;23.79;55.02
7940;BME280;4015;48.888;9.226;2023-05-20T10:39:31;161281.06;;;24.00;53.04
7940;BME280;4015;48.888;9.226;2023-05-20T10:42:09;161416.34;;;24.54;53.58
7940;BME280;4015;48.888;9.226;2023-05-20T10:44:41;161820.84;;;26.14;49.55
7940;BME280;4015;48.888;9.226;2023-05-20T10:47:08;162063.28;;;27.09;46.83
7940;BME280;4015;48.888;9.226;2023-05-20T10:49:33;162168.97;;;27.51;46.77
7940;BME280;4015;48.888;9.226;2023-05-20T10:52:00;162274.78;;;27.93;48.56
7940;BME280;4015;48.888;9.226;2023-05-20T10:54:26;162345.69;;;28.21;45.95
7940;BME280;4015;48.888;9.226;2023-05-20T10:56:53;162161.25;;;27.48;48.53
7940;BME280;4015;48.888;9.226;2023-05-20T10:59:19;162104.50;;;27.26;48.70
7940;BME280;4015;48.888;9.226;2023-05-20T11:01:46;162223.22;;;27.73;48.22
7940;BME280;4015;48.888;9.226;2023-05-20T11:04:14;162168.97;;;27.51;47.48
7940;BME280;4015;48.888;9.226;2023-05-20T11:06:49;162259.31;;;27.87;46.93
7940;BME280;4015;48.888;9.226;2023-05-20T11:09:15;162299.25;;;28.03;47.19
7940;BME280;4015;48.888;9.226;2023-05-20T11:11:40;162189.59;;;27.59;46.61
7940;BME280;4015;48.888;9.226;2023-05-20T11:14:06;162281.19;;;27.95;46.83
7940;BME280;4015;48.888;9.226;2023-05-20T11:16:31;162571.53;;;29.10;43.49
7940;BME280;4015;48.888;9.226;2023-05-20T11:18:56;162678.69;;;29.52;45.01
7940;BME280;4015;48.888;9.226;2023-05-20T11:21:22;162486.34;;;28.76;45.89
7940;BME280;4015;48.888;9.226;2023-05-20T11:23:50;162176.72;;;27.54;48.05
7940;BME280;4015;48.888;9.226;2023-05-20T11:26:15;161988.47;;;26.80;48.45
7940;BME280;4015;48.888;9.226;2023-05-20T11:28:41;161865.97;;;26.31;48.88
7940;BME280;4015;48.888;9.226;2023-05-20T11:31:06;162199.91;;;27.63;48.93
7940;BME280;4015;48.888;9.226;2023-05-20T11:33:32;162297.97;;;28.02;46.36
7940;BME280;4015;48.888;9.226;2023-05-20T11:35:57;162283.78;;;27.96;47.69
7940;BME280;4015;48.888;9.226;2023-05-20T11:38:22;162288.97;;;27.99;47.10
7940;BME280;4015;48.888;9.226;2023-05-20T11:40:52;162278.63;;;27.94;46.99
7940;BME280;4015;48.888;9.226;2023-05-20T11:43:19;162098.09;;;27.23;47.92
7940;BME280;4015;48.888;9.226;2023-05-20T11:45:55;162126.47;;;27.34;48.38
7940;BME280;4015;48.888;9.226;2023-05-20T11:48:20;162393.47;;;28.40;47.50
7940;BME280;4015;48.888;9.226;2023-05-20T11:50:47;162380.56;;;28.35;45.04
7940;BME280;4015;48.888;9.226;2023-05-20T11:53:17;162304.44;;;28.05;44.99
7940;BME280;4015;48.888;9.226;2023-05-20T11:55:51;162016.81;;;26.91;49.15
7940;BME280;4015;48.888;9.226;2023-05-20T11:58:25;161845.34;;;26.23;49.13
7940;BME280;4015;48.888;9.226;2023-05-20T12:00:51;161818.28;;;26.13;49.92
7940;BME280;4015;48.888;9.226;2023-05-20T12:03:16;161750.00;;;25.86;50.98
7940;BME280;4015;48.888;9.226;2023-05-20T12:05:42;161818.28;;;26.13;50.30
7940;BME280;4015;48.888;9.226;2023-05-20T12:08:08;161856.97;;;26.28;51.80
7940;BME280;4015;48.888;9.226;2023-05-20T12:10:33;161780.94;;;25.98;50.75
7940;BME280;4015;48.888;9.226;2023-05-20T12:12:59;161774.47;;;25.95;48.69
7940;BME280;4015;48.888;9.226;2023-05-20T12:15:24;161747.44;;;25.85;51.33
7940;BME280;4015;48.888;9.226;2023-05-20T12:17:52;161689.41;;;25.62;51.69
7940;BME280;4015;48.888;9.226;2023-05-20T12:20:21;161730.69;;;25.78;52.52
7940;BME280;4015;48.888;9.226;2023-05-20T12:22:47;161679.06;;;25.58;51.26
7940;BME280;4015;48.888;9.226;2023-05-20T12:25:14;161891.78;;;26.42;48.69
7940;BME280;4015;48.888;9.226;2023-05-20T12:27:43;161956.22;;;26.67;49.17
7940;BME280;4015;48.888;9.226;2023-05-20T12:30:14;162288.97;;;27.99;47.33
7940;BME280;4015;48.888;9.226;2023-05-20T12:32:40;162559.97;;;29.06;44.57
7940;BME280;4015;48.888;9.226;2023-05-20T12:35:07;162721.31;;;29.69;44.56
7940;BME280;4015;48.888;9.226;2023-05-20T12:37:33;162593.50;;;29.19;43.39
7940;BME280;4015;48.888;9.226;2023-05-20T12:39:58;162606.41;;;29.24;45.63
7940;BME280;4015;48.888;9.226;2023-05-20T12:42:24;162381.88;;;28.35;46.13
7940;BME280;4015;48.888;9.226;2023-05-20T12:44:49;162270.91;;;27.91;45.66
7940;BME280;4015;48.888;9.226;2023-05-20T12:47:15;162189.59;;;27.59;47.78
7940;BME280;4015;48.888;9.226;2023-05-20T12:49:40;162089.03;;;27.20;48.34
7940;BME280;4015;48.888;9.226;2023-05-20T12:52:06;162265.72;;;27.89;47.52
7940;BME280;4015;48.888;9.226;2023-05-20T12:54:31;162150.94;;;27.44;48.25
7940;BME280;4015;48.888;9.226;2023-05-20T12:56:57;162297.97;;;28.02;47.97
7940;BME280;4015;48.888;9.226;2023-05-20T12:59:23;162379.25;;;28.34;48.08
7940;BME280;4015;48.888;9.226;2023-05-20T13:01:48;162661.88;;;29.46;46.34
7940;BME280;4015;48.888;9.226;2023-05-20T13:04:13;162572.88;;;29.11;45.49
7940;BME280;4015;48.888;9.226;2023-05-20T13:06:39;162344.41;;;28.20;46.62
7940;BME280;4015;48.888;9.226;2023-05-20T13:09:05;162206.41;;;27.66;47.60
7940;BME280;4015;48.888;9.226;2023-05-20T13:11:30;162028.38;;;26.96;48.88
7940;BME280;4015;48.888;9.226;2023-05-20T13:13:55;161971.72;;;26.73;48.21